Time;durP1;ratioP1;P1;durP2;ratioP2;P2;SDS_P1;SDS_P2;PMS_P1;PMS_P2;Temp;Humidity;BMP_temperature;BMP_pressure;BME280_temperature;BME280_humidity;BME280_pressure;Samples;Min_cycle;Max_cycle;Signal;HPM_P1;HPM_P2
2022/06/27 00:01:57;;;;;;;17.90;4.05;;;23.80;90.50;;;;;;5110557;28;20046;-69
2022/06/27 00:05:01;;;;;;;15.93;3.08;;;23.80;90.50;;;;;;5110869;28;20374;-69
2022/06/27 00:08:05;;;;;;;13.40;3.10;;;23.80;90.70;;;;;;5110171;28;20050;-69
2022/06/27 00:11:10;;;;;;;15.90;3.75;;;23.70;91.00;;;;;;5110902;28;20043;-69
2022/06/27 00:14:14;;;;;;;13.32;3.47;;;23.60;91.30;;;;;;5110327;28;20054;-70
2022/06/27 00:17:19;;;;;;;21.05;3.50;;;23.50;91.60;;;;;;5109868;28;20046;-68
2022/06/27 00:20:24;;;;;;;15.07;3.55;;;23.40;91.80;;;;;;5110542;28;20046;-69
2022/06/27 00:23:29;;;;;;;14.75;3.47;;;23.30;91.90;;;;;;5109541;28;20378;-69
2022/06/27 00:26:33;;;;;;;19.77;3.30;;;23.30;92.00;;;;;;5109954;28;20057;-69
2022/06/27 00:29:37;;;;;;;20.27;4.60;;;23.20;92.00;;;;;;5109363;28;20042;-68
2022/06/27 00:32:41;;;;;;;16.90;3.00;;;23.20;91.90;;;;;;5110145;28;20505;-69
2022/06/27 00:35:46;;;;;;;19.67;3.33;;;23.30;91.80;;;;;;5109886;28;20421;-69
2022/06/27 00:38:50;;;;;;;22.85;3.70;;;23.30;91.80;;;;;;5110131;28;20070;-69
2022/06/27 00:41:54;;;;;;;9.80;2.95;;;23.40;91.60;;;;;;5109895;28;20043;-70
2022/06/27 00:44:58;;;;;;;16.77;3.42;;;23.40;91.60;;;;;;5110153;28;20040;-69
2022/06/27 00:48:02;;;;;;;19.23;2.97;;;23.50;91.40;;;;;;5109637;28;20397;-69
2022/06/27 00:51:07;;;;;;;24.05;4.03;;;23.50;91.50;;;;;;5111170;28;20398;-69
2022/06/27 00:54:10;;;;;;;17.98;2.72;;;23.40;91.50;;;;;;5113701;28;20039;-69
2022/06/27 00:57:15;;;;;;;18.83;3.55;;;23.40;91.60;;;;;;5112030;28;20393;-69
2022/06/27 01:00:21;;;;;;;19.77;2.85;;;23.30;91.60;;;;;;5114010;28;20347;-69
2022/06/27 01:03:25;;;;;;;18.92;2.85;;;23.30;91.60;;;;;;5113708;28;20058;-69
2022/06/27 01:06:29;;;;;;;22.98;3.78;;;23.40;91.40;;;;;;5112946;28;20505;-69
2022/06/27 01:09:34;;;;;;;23.40;3.83;;;23.40;90.90;;;;;;5112295;28;20397;-68
2022/06/27 01:12:41;;;;;;;26.35;3.80;;;23.60;88.40;;;;;;5113267;28;20063;-69
2022/06/27 01:15:46;;;;;;;27.13;4.97;;;23.90;85.40;;;;;;5113591;28;20042;-68
2022/06/27 01:18:50;;;;;;;30.70;4.65;;;24.20;82.50;;;;;;5113539;28;20051;-68
2022/06/27 01:21:56;;;;;;;32.30;4.72;;;24.60;79.50;;;;;;5112979;28;20055;-68
2022/06/27 01:25:01;;;;;;;36.25;6.15;;;25.00;77.20;;;;;;5112619;28;20133;-69
2022/06/27 01:28:07;;;;;;;33.58;6.25;;;25.40;75.80;;;;;;5111825;28;20042;-69
2022/06/27 01:31:14;;;;;;;28.15;4.82;;;25.60;74.50;;;;;;5112328;28;20504;-69
2022/06/27 01:34:19;;;;;;;19.58;4.32;;;25.70;79.80;;;;;;5112464;28;20682;-69
2022/06/27 01:37:23;;;;;;;27.85;4.32;;;25.40;82.30;;;;;;5111695;28;20054;-69
2022/06/27 01:40:28;;;;;;;18.52;3.63;;;24.60;84.80;;;;;;5112046;28;20608;-68
2022/06/27 01:43:35;;;;;;;24.55;3.97;;;24.00;89.60;;;;;;5112135;28;20035;-69
2022/06/27 01:46:42;;;;;;;24.45;3.90;;;22.70;93.30;;;;;;5111729;28;20382;-69
2022/06/27 01:49:46;;;;;;;13.93;3.90;;;22.10;95.10;;;;;;5112242;28;20038;-69
2022/06/27 01:52:51;;;;;;;18.40;4.65;;;22.00;96.10;;;;;;5112064;28;20042;-69
2022/06/27 01:55:56;;;;;;;16.98;3.80;;;21.90;96.20;;;;;;5112027;28;20031;-69
2022/06/27 01:59:00;;;;;;;21.00;3.45;;;21.90;96.40;;;;;;5111577;28;20039;-69
2022/06/27 02:02:06;;;;;;;18.20;4.20;;;21.90;96.50;;;;;;5111361;28;20050;-68
2022/06/27 02:05:11;;;;;;;16.25;3.78;;;21.80;96.70;;;;;;5111661;28;20035;-69
2022/06/27 02:08:18;;;;;;;16.48;3.50;;;21.70;96.80;;;;;;5111147;28;20050;-69
2022/06/27 02:11:23;;;;;;;16.60;3.60;;;21.70;96.80;;;;;;5111574;28;20050;-69
2022/06/27 02:14:30;;;;;;;17.75;3.35;;;21.70;97.00;;;;;;5111461;28;20042;-69
2022/06/27 02:17:34;;;;;;;14.15;3.40;;;21.60;97.40;;;;;;5111865;28;20066;-68
2022/06/27 02:20:38;;;;;;;19.00;3.30;;;21.50;97.90;;;;;;5111264;28;20054;-68
2022/06/27 02:23:42;;;;;;;12.48;3.60;;;21.50;98.30;;;;;;5111341;28;20050;-69
2022/06/27 02:26:49;;;;;;;10.82;3.15;;;21.50;98.70;;;;;;5111449;28;20439;-69
2022/06/27 02:29:54;;;;;;;19.75;4.50;;;21.40;98.90;;;;;;5112329;28;20418;-68
2022/06/27 02:32:58;;;;;;;18.48;4.10;;;21.40;99.10;;;;;;5112211;28;20050;-68
2022/06/27 02:36:05;;;;;;;15.45;4.68;;;21.40;99.30;;;;;;5111660;28;20042;-68
2022/06/27 02:39:12;;;;;;;18.77;3.78;;;21.50;99.30;;;;;;5112224;28;20051;-68
2022/06/27 02:42:20;;;;;;;12.15;3.28;;;21.50;99.00;;;;;;5112090;28;20042;-69
2022/06/27 02:45:30;;;;;;;20.98;4.68;;;21.60;98.70;;;;;;5111928;28;20043;-68
2022/06/27 02:48:37;;;;;;;20.80;3.35;;;21.70;98.40;;;;;;5111701;28;20039;-69
2022/06/27 02:51:46;;;;;;;14.10;3.58;;;21.70;98.20;;;;;;5110835;28;20054;-68
2022/06/27 02:54:59;;;;;;;12.95;3.25;;;21.70;97.80;;;;;;5111706;28;20035;-69
2022/06/27 02:58:16;;;;;;;24.77;4.00;;;21.80;97.70;;;;;;5098344;28;20058;-68
2022/06/27 03:01:21;;;;;;;15.90;3.33;;;21.80;97.70;;;;;;5110444;28;20051;-69
2022/06/27 03:04:25;;;;;;;20.13;3.83;;;21.80;97.70;;;;;;5111406;28;20054;-68
2022/06/27 03:07:29;;;;;;;15.82;3.92;;;21.70;97.60;;;;;;5109686;28;20516;-70
2022/06/27 03:10:33;;;;;;;15.18;3.50;;;21.70;97.70;;;;;;5110231;28;20062;-69
2022/06/27 03:13:37;;;;;;;20.83;3.63;;;21.70;97.40;;;;;;5110904;28;20046;-68
2022/06/27 03:16:42;;;;;;;20.48;3.97;;;21.70;97.30;;;;;;5109633;28;20379;-69
2022/06/27 03:19:47;;;;;;;13.60;3.03;;;21.80;97.20;;;;;;5110167;28;20390;-69
2022/06/27 03:23:07;;;;;;;17.77;3.28;;;21.90;97.00;;;;;;5110298;28;20046;-68
2022/06/27 03:26:18;;;;;;;14.38;3.35;;;21.90;96.90;;;;;;5109604;28;20050;-68
2022/06/27 03:29:26;;;;;;;23.65;4.40;;;21.80;96.80;;;;;;5110092;28;20046;-69
2022/06/27 03:32:34;;;;;;;29.35;4.65;;;21.80;96.80;;;;;;5109828;28;20497;-69
2022/06/27 03:35:44;;;;;;;20.40;4.07;;;21.80;96.80;;;;;;5109705;28;20038;-69
2022/06/27 03:38:48;;;;;;;17.67;3.03;;;21.70;96.70;;;;;;5109925;28;20042;-69
2022/06/27 03:41:52;;;;;;;22.35;4.45;;;21.70;96.80;;;;;;5109622;28;20035;-69
2022/06/27 03:44:56;;;;;;;19.17;3.58;;;21.70;97.20;;;;;;5098430;28;20042;-68
2022/06/27 03:48:02;;;;;;;25.10;4.93;;;21.60;97.40;;;;;;5109285;28;20398;-69
2022/06/27 03:51:10;;;;;;;18.30;3.78;;;21.60;97.70;;;;;;5110886;28;20501;-68
2022/06/27 03:54:14;;;;;;;16.67;3.40;;;21.60;97.60;;;;;;5109608;28;20047;-69
2022/06/27 03:57:18;;;;;;;16.77;3.53;;;21.60;97.50;;;;;;5108849;28;20043;-69
2022/06/27 04:00:24;;;;;;;26.23;4.05;;;21.70;97.30;;;;;;5109731;28;20067;-68
2022/06/27 04:03:31;;;;;;;17.17;3.85;;;21.80;97.10;;;;;;5110118;28;20042;-69
2022/06/27 04:06:40;;;;;;;19.73;3.78;;;21.90;97.10;;;;;;5109574;28;20050;-69
2022/06/27 04:09:44;;;;;;;20.42;3.60;;;22.00;96.80;;;;;;5109953;28;20039;-68
2022/06/27 04:12:49;;;;;;;19.20;3.80;;;22.20;96.50;;;;;;5109606;28;20046;-69
2022/06/27 04:16:24;;;;;;;19.90;4.25;;;22.30;96.60;;;;;;5097683;28;20413;-69
2022/06/27 04:19:58;;;;;;;26.23;4.28;;;22.40;96.50;;;;;;5111380;28;20050;-68
2022/06/27 04:23:18;;;;;;;35.33;4.55;;;22.40;96.20;;;;;;5109628;28;20043;-68
2022/06/27 04:26:45;;;;;;;24.20;4.22;;;22.60;96.50;;;;;;5115236;28;20042;-68
2022/06/27 04:29:50;;;;;;;23.17;4.28;;;22.60;96.10;;;;;;5113354;28;20390;-69
2022/06/27 04:32:55;;;;;;;27.23;4.80;;;22.90;95.60;;;;;;5113446;28;20055;-68
2022/06/27 04:36:00;;;;;;;24.00;3.78;;;23.40;95.10;;;;;;5113902;28;20065;-69
2022/06/27 04:39:05;;;;;;;21.80;3.67;;;24.00;94.30;;;;;;5113280;28;20046;-69
2022/06/27 04:42:26;;;;;;;24.08;4.15;;;24.50;93.40;;;;;;5112981;28;20427;-69
2022/06/27 04:45:33;;;;;;;29.45;4.35;;;25.30;92.50;;;;;;5113396;28;20058;-68
2022/06/27 04:48:57;;;;;;;22.55;3.70;;;25.80;91.90;;;;;;5114122;28;20042;-69
2022/06/27 04:52:01;;;;;;;28.58;4.47;;;26.40;91.00;;;;;;5113982;28;20058;-69
2022/06/27 04:55:08;;;;;;;17.85;4.10;;;26.70;90.40;;;;;;5101282;28;20046;-69
2022/06/27 04:58:12;;;;;;;16.45;4.07;;;27.20;90.00;;;;;;5113317;28;20409;-69
2022/06/27 05:01:16;;;;;;;23.38;4.05;;;27.80;90.20;;;;;;5112833;28;20536;-68
2022/06/27 05:04:41;;;;;;;19.85;3.70;;;28.00;90.20;;;;;;5104123;28;20051;-69
2022/06/27 05:07:45;;;;;;;28.17;5.20;;;28.50;89.90;;;;;;5112058;28;20117;-69
2022/06/27 05:10:49;;;;;;;28.83;3.80;;;29.00;88.60;;;;;;5112780;28;20386;-69
2022/06/27 05:13:54;;;;;;;22.27;4.43;;;29.40;87.00;;;;;;5113043;28;20332;-69
2022/06/27 05:17:18;;;;;;;23.17;3.97;;;29.80;85.30;;;;;;5114929;28;20039;-69
2022/06/27 05:20:22;;;;;;;25.30;4.68;;;30.50;84.30;;;;;;5112961;28;20047;-68
2022/06/27 05:23:28;;;;;;;28.45;4.15;;;30.90;82.60;;;;;;5101679;28;20062;-70
2022/06/27 05:26:32;;;;;;;28.10;3.72;;;31.20;81.50;;;;;;5113759;28;20473;-69
2022/06/27 05:29:37;;;;;;;27.35;4.20;;;31.20;81.00;;;;;;5112186;28;20042;-69
2022/06/27 05:32:43;;;;;;;19.75;3.88;;;31.30;80.40;;;;;;5111786;28;20046;-69
2022/06/27 05:35:48;;;;;;;16.92;4.00;;;31.60;80.90;;;;;;5100725;28;20042;-69
2022/06/27 05:38:52;;;;;;;16.23;3.78;;;32.10;80.60;;;;;;5100969;28;20050;-69
2022/06/27 05:41:58;;;;;;;24.67;3.95;;;32.30;79.90;;;;;;5101202;28;20038;-69
2022/06/27 05:45:04;;;;;;;20.58;4.18;;;32.20;78.40;;;;;;5112661;28;20524;-69
2022/06/27 05:48:17;;;;;;;21.83;4.00;;;31.90;77.60;;;;;;5111510;28;20401;-69
2022/06/27 05:51:36;;;;;;;23.67;4.85;;;31.20;78.20;;;;;;5111860;28;20046;-69
2022/06/27 05:54:40;;;;;;;26.23;4.55;;;30.40;78.00;;;;;;5111386;28;20611;-69
2022/06/27 05:57:44;;;;;;;29.80;4.78;;;30.70;77.70;;;;;;5099962;28;20395;-69
2022/06/27 06:00:51;;;;;;;20.30;4.20;;;31.30;77.30;;;;;;5091418;28;20047;-69
2022/06/27 06:03:56;;;;;;;28.95;4.53;;;31.70;76.90;;;;;;5109978;28;20055;-69
2022/06/27 06:07:01;;;;;;;23.63;4.35;;;31.90;75.30;;;;;;5112264;28;20038;-69
2022/06/27 06:10:06;;;;;;;22.77;4.00;;;31.30;76.80;;;;;;5111447;28;20039;-69
2022/06/27 06:13:13;;;;;;;28.10;5.40;;;30.20;81.00;;;;;;5111819;28;20062;-69
2022/06/27 06:16:20;;;;;;;16.08;3.60;;;30.30;83.40;;;;;;5111572;28;20058;-69
2022/06/27 06:19:25;;;;;;;25.77;4.60;;;29.30;84.80;;;;;;5112183;28;20050;-69
2022/06/27 06:22:30;;;;;;;15.32;3.67;;;29.20;85.80;;;;;;5111302;28;20047;-69
2022/06/27 06:25:34;;;;;;;21.73;4.68;;;29.00;87.20;;;;;;5111943;28;20063;-68
2022/06/27 06:28:38;;;;;;;16.02;3.85;;;28.50;88.90;;;;;;5106846;28;20031;-70
2022/06/27 06:31:43;;;;;;;11.85;3.33;;;29.70;87.10;;;;;;5106653;28;20046;-69
2022/06/27 06:34:50;;;;;;;23.90;3.58;;;30.90;85.10;;;;;;5104933;28;20768;-67
2022/06/27 06:37:57;;;;;;;20.98;3.85;;;31.80;83.30;;;;;;5104854;28;20046;-69
2022/06/27 06:41:01;;;;;;;25.95;4.50;;;32.00;81.10;;;;;;5100894;28;20773;-70
2022/06/27 06:44:06;;;;;;;23.85;4.40;;;32.70;78.60;;;;;;5106068;28;20351;-69
2022/06/27 06:47:41;;;;;;;24.48;4.25;;;32.40;78.40;;;;;;5102314;28;20046;-66
2022/06/27 06:50:46;;;;;;;21.15;4.88;;;31.70;76.80;;;;;;5108349;28;20105;-69
2022/06/27 06:53:50;;;;;;;33.97;4.97;;;30.40;80.00;;;;;;5111652;28;20608;-68
2022/06/27 06:56:55;;;;;;;30.60;4.63;;;30.40;80.90;;;;;;5105992;28;20051;-69
2022/06/27 06:59:59;;;;;;;24.17;3.83;;;31.40;81.20;;;;;;5110799;28;20087;-69
2022/06/27 07:03:02;;;;;;;22.45;4.10;;;32.50;80.80;;;;;;5100984;28;20050;-69
2022/06/27 07:06:09;;;;;;;24.95;4.03;;;33.60;77.10;;;;;;5110443;28;20042;-68
2022/06/27 07:09:13;;;;;;;21.48;3.38;;;34.40;75.90;;;;;;5102284;28;20034;-68
2022/06/27 07:12:18;;;;;;;19.73;3.53;;;35.00;75.10;;;;;;5103973;28;20049;-70
2022/06/27 07:15:22;;;;;;;22.13;3.85;;;35.90;74.70;;;;;;5103706;28;20031;-69
2022/06/27 07:18:27;;;;;;;23.65;4.03;;;36.70;72.90;;;;;;5102441;28;20042;-69
2022/06/27 07:21:31;;;;;;;17.13;3.88;;;37.30;72.10;;;;;;5104660;28;20100;-68
2022/06/27 07:24:36;;;;;;;18.00;3.88;;;37.90;71.70;;;;;;5107772;28;20795;-68
2022/06/27 07:27:42;;;;;;;23.55;4.32;;;38.80;70.40;;;;;;5104792;28;20039;-69
2022/06/27 07:30:48;;;;;;;25.92;4.22;;;39.50;69.00;;;;;;5103409;28;20042;-69
2022/06/27 07:33:54;;;;;;;19.40;4.38;;;39.40;67.60;;;;;;5104882;28;20050;-70
2022/06/27 07:36:59;;;;;;;18.40;3.92;;;39.20;68.20;;;;;;5105063;28;20051;-71
2022/06/27 07:40:03;;;;;;;20.05;4.28;;;38.90;68.50;;;;;;5106226;28;20043;-69
2022/06/27 07:43:13;;;;;;;22.98;3.78;;;39.60;68.10;;;;;;5103561;28;20054;-69
2022/06/27 07:46:17;;;;;;;22.73;5.50;;;39.70;67.90;;;;;;5101700;28;20771;-70
2022/06/27 07:49:22;;;;;;;21.35;4.72;;;38.90;66.60;;;;;;5106928;28;20043;-70
2022/06/27 07:52:27;;;;;;;21.08;4.47;;;37.90;68.50;;;;;;5102005;28;20026;-71
2022/06/27 07:55:31;;;;;;;19.15;4.07;;;38.70;68.80;;;;;;5101450;28;20050;-70
2022/06/27 07:58:38;;;;;;;22.98;4.05;;;38.50;68.80;;;;;;5105684;28;20063;-69
2022/06/27 08:01:42;;;;;;;22.23;4.43;;;38.00;69.00;;;;;;5101803;28;20050;-70
2022/06/27 08:04:46;;;;;;;28.67;4.50;;;38.40;69.10;;;;;;5099848;28;20039;-70
2022/06/27 08:07:50;;;;;;;23.98;3.92;;;40.00;68.10;;;;;;5109721;28;20105;-70
2022/06/27 08:10:55;;;;;;;18.33;3.90;;;39.70;67.80;;;;;;5101340;28;20055;-69
2022/06/27 08:14:03;;;;;;;19.65;4.68;;;39.50;68.40;;;;;;5111258;28;20047;-69
2022/06/27 08:17:07;;;;;;;23.30;4.25;;;37.20;70.20;;;;;;5111231;28;20047;-70
2022/06/27 08:20:12;;;;;;;27.23;3.90;;;38.10;70.20;;;;;;5105917;28;20050;-70
2022/06/27 08:23:17;;;;;;;31.77;4.75;;;38.40;69.80;;;;;;5109079;28;20078;-71
2022/06/27 08:26:23;;;;;;;25.85;4.20;;;39.60;69.20;;;;;;5102284;28;20043;-71
2022/06/27 08:29:27;;;;;;;25.17;4.50;;;41.30;67.90;;;;;;5103289;28;20090;-71
2022/06/27 08:32:32;;;;;;;20.85;4.32;;;42.60;65.80;;;;;;5101548;28;20047;-71
2022/06/27 08:35:36;;;;;;;24.75;4.25;;;43.50;65.00;;;;;;5097790;28;20047;-70
2022/06/27 08:38:50;;;;;;;27.65;4.53;;;43.90;64.90;;;;;;5101940;28;20051;-69
2022/06/27 08:41:56;;;;;;;20.45;4.18;;;45.00;63.50;;;;;;5099478;28;20052;-68
2022/06/27 08:45:02;;;;;;;24.50;4.68;;;46.00;62.40;;;;;;5102942;28;20051;-69
2022/06/27 08:48:07;;;;;;;28.42;5.32;;;46.10;61.60;;;;;;5101857;28;20051;-69
2022/06/27 08:51:13;;;;;;;39.50;5.93;;;45.10;57.20;;;;;;5104403;28;20413;-69
2022/06/27 08:54:17;;;;;;;44.05;8.48;;;42.50;56.30;;;;;;5099782;28;20110;-70
2022/06/27 08:57:22;;;;;;;45.42;6.95;;;39.80;56.50;;;;;;5099315;28;20513;-70
2022/06/27 09:00:27;;;;;;;45.15;6.28;;;40.10;57.50;;;;;;5100502;28;20505;-68
2022/06/27 09:03:32;;;;;;;42.20;6.20;;;39.90;57.10;;;;;;5103000;28;20039;-70
2022/06/27 09:06:43;;;;;;;41.30;6.15;;;39.20;56.90;;;;;;5103811;28;20419;-69
2022/06/27 09:09:47;;;;;;;50.72;7.82;;;38.40;57.40;;;;;;5102904;28;20043;-69
2022/06/27 09:12:55;;;;;;;59.60;6.93;;;37.50;57.80;;;;;;5104363;28;20043;-70
2022/06/27 09:16:01;;;;;;;41.63;5.97;;;38.50;59.00;;;;;;5106224;28;20156;-69
2022/06/27 09:19:06;;;;;;;43.58;7.00;;;39.30;57.20;;;;;;5113770;28;20054;-68
2022/06/27 09:22:14;;;;;;;46.15;7.15;;;37.40;56.80;;;;;;5112910;28;20042;-72
2022/06/27 09:25:22;;;;;;;33.88;6.22;;;37.00;58.20;;;;;;5107252;28;20381;-70
2022/06/27 09:28:48;;;;;;;39.40;6.85;;;37.30;58.80;;;;;;5094366;28;20047;-70
2022/06/27 09:31:53;;;;;;;33.25;6.82;;;37.60;57.50;;;;;;5113212;28;20497;-69
2022/06/27 09:34:58;;;;;;;46.55;7.72;;;38.20;56.50;;;;;;5112355;28;20050;-71
2022/06/27 09:38:04;;;;;;;42.85;5.88;;;38.40;57.40;;;;;;5111889;28;20043;-70
2022/06/27 09:41:13;;;;;;;31.90;6.10;;;38.30;57.70;;;;;;5112635;28;20050;-69
2022/06/27 09:44:24;;;;;;;34.08;6.15;;;40.60;57.00;;;;;;5113046;28;20043;-69
2022/06/27 09:47:29;;;;;;;37.15;7.28;;;42.00;55.50;;;;;;5111005;28;20034;-70
2022/06/27 09:50:40;;;;;;;34.53;6.43;;;39.20;56.40;;;;;;5102470;28;20105;-70
2022/06/27 09:53:50;;;;;;;34.45;6.45;;;40.20;56.80;;;;;;5111704;28;20042;-69
2022/06/27 09:56:56;;;;;;;38.63;6.30;;;38.40;57.20;;;;;;5110121;28;20425;-69
2022/06/27 10:00:00;;;;;;;37.47;6.80;;;39.10;57.30;;;;;;5106188;28;20047;-71
2022/06/27 10:03:05;;;;;;;49.72;7.93;;;38.70;56.50;;;;;;5110355;28;20066;-70
2022/06/27 10:06:10;;;;;;;37.95;6.35;;;39.60;55.80;;;;;;5103265;28;20034;-69
2022/06/27 10:09:16;;;;;;;43.17;6.63;;;41.40;55.40;;;;;;5111921;28;20114;-71
2022/06/27 10:12:36;;;;;;;48.78;7.63;;;40.80;56.70;;;;;;5112355;28;20046;-71
2022/06/27 10:15:41;;;;;;;45.65;6.00;;;39.80;56.30;;;;;;5106975;28;20046;-69
2022/06/27 10:18:57;;;;;;;42.78;6.60;;;39.30;56.70;;;;;;5112540;28;20043;-71
2022/06/27 10:22:01;;;;;;;50.63;6.45;;;38.20;56.60;;;;;;5111963;28;20047;-71
2022/06/27 10:25:27;;;;;;;42.97;5.95;;;37.90;56.40;;;;;;5111335;28;20489;-69
2022/06/27 10:28:31;;;;;;;40.50;6.03;;;38.50;57.10;;;;;;5111708;28;20034;-71
2022/06/27 10:31:53;;;;;;;41.33;5.85;;;38.00;56.30;;;;;;5111795;28;20047;-70
2022/06/27 10:35:06;;;;;;;36.85;6.70;;;38.20;56.90;;;;;;5110052;28;20043;-72
2022/06/27 10:38:39;;;;;;;39.03;6.13;;;39.00;56.40;;;;;;5102185;28;20046;-71
2022/06/27 10:41:43;;;;;;;45.50;5.95;;;39.40;56.30;;;;;;5083368;28;20391;-70
2022/06/27 10:44:47;;;;;;;40.63;6.00;;;40.40;56.20;;;;;;5106176;28;20432;-70
2022/06/27 10:48:01;;;;;;;32.47;5.78;;;40.20;56.40;;;;;;5110484;28;20035;-70
2022/06/27 10:51:26;;;;;;;43.42;6.70;;;39.00;56.40;;;;;;5105895;28;20051;-70
2022/06/27 10:54:38;;;;;;;37.10;6.05;;;40.20;56.90;;;;;;5108973;28;20394;-69
2022/06/27 10:57:44;;;;;;;38.78;6.55;;;41.70;55.70;;;;;;5110248;28;20097;-68
2022/06/27 11:00:49;;;;;;;44.40;6.13;;;41.70;55.30;;;;;;5100540;28;20051;-70
2022/06/27 11:03:54;;;;;;;35.92;6.38;;;41.50;54.60;;;;;;5105254;28;20039;-68
2022/06/27 11:07:05;;;;;;;36.70;6.13;;;39.50;56.20;;;;;;5100197;28;20607;-70
2022/06/27 11:10:10;;;;;;;41.00;6.35;;;40.00;55.60;;;;;;5101839;28;20587;-69
2022/06/27 11:13:51;;;;;;;30.60;5.93;;;41.10;55.50;;;;;;5101092;28;20039;-71
2022/06/27 11:16:55;;;;;;;35.20;5.55;;;39.80;55.60;;;;;;5019278;28;20041;-68
2022/06/27 11:20:14;;;;;;;31.95;5.60;;;40.10;56.10;;;;;;5105048;28;20062;-68
2022/06/27 11:23:18;;;;;;;34.90;5.72;;;41.10;55.60;;;;;;5105689;28;20047;-68
2022/06/27 11:26:25;;;;;;;43.47;7.75;;;41.50;55.40;;;;;;5098745;28;20042;-68
2022/06/27 11:32:52;;;;;;;48.40;6.72;;;39.40;56.70;;;;;;5103113;28;20493;-69
2022/06/27 11:35:56;;;;;;;33.55;5.13;;;40.60;56.20;;;;;;5107470;28;20038;-68
2022/06/27 11:39:01;;;;;;;33.95;6.65;;;41.70;55.80;;;;;;5105623;28;20046;-68
2022/06/27 11:42:10;;;;;;;27.23;6.63;;;41.30;55.50;;;;;;5101871;28;20397;-69
2022/06/27 11:45:15;;;;;;;37.08;6.13;;;41.20;56.40;;;;;;5111121;28;20042;-68
2022/06/27 11:48:19;;;;;;;37.97;6.32;;;41.40;57.90;;;;;;5109149;28;20034;-69
2022/06/27 11:51:30;;;;;;;41.25;5.65;;;41.60;56.50;;;;;;5109881;28;20042;-68
2022/06/27 11:54:40;;;;;;;33.45;6.35;;;41.40;56.30;;;;;;5109478;28;20035;-68
2022/06/27 11:58:01;;;;;;;35.10;6.78;;;41.60;55.70;;;;;;5108860;28;20054;-68
2022/06/27 12:01:10;;;;;;;39.88;5.88;;;41.60;55.00;;;;;;5079863;28;20066;-69
2022/06/27 12:04:19;;;;;;;36.83;6.28;;;41.10;55.90;;;;;;5081343;28;20039;-69
2022/06/27 12:07:27;;;;;;;34.15;6.13;;;41.00;56.90;;;;;;5094419;28;20527;-68
2022/06/27 12:11:17;;;;;;;43.15;6.20;;;40.90;55.90;;;;;;5099147;28;20513;-69
2022/06/27 12:14:10;;;;;;;34.88;5.55;;;40.40;55.80;;;;;;5102170;28;20047;-67
2022/06/27 12:17:15;;;;;;;39.20;6.28;;;41.00;56.50;;;;;;5097149;28;20465;-66
2022/06/27 12:20:19;;;;;;;46.10;6.80;;;41.40;56.30;;;;;;5101811;28;20197;-66
2022/06/27 12:23:25;;;;;;;38.47;6.38;;;41.50;55.60;;;;;;5101203;28;20047;-68
2022/06/27 12:26:30;;;;;;;38.22;6.68;;;41.20;55.90;;;;;;5089398;28;20035;-68
2022/06/27 12:29:35;;;;;;;42.97;5.97;;;40.00;55.50;;;;;;5108948;28;20473;-68
2022/06/27 12:32:41;;;;;;;34.20;5.43;;;39.70;56.90;;;;;;5078171;28;20039;-68
2022/06/27 12:35:45;;;;;;;30.08;6.45;;;40.20;57.40;;;;;;5107117;28;20051;-69
2022/06/27 12:39:02;;;;;;;34.60;7.25;;;41.00;56.30;;;;;;5096535;28;20038;-67
2022/06/27 12:42:08;;;;;;;41.97;7.03;;;40.90;56.60;;;;;;5089073;28;20067;-68
2022/06/27 12:45:13;;;;;;;40.75;6.00;;;42.10;55.80;;;;;;5085026;28;20035;-68
2022/06/27 12:48:18;;;;;;;38.65;6.05;;;42.50;55.80;;;;;;5100046;28;20038;-68
2022/06/27 12:51:26;;;;;;;32.40;5.50;;;42.70;55.40;;;;;;5108607;28;20039;-68
2022/06/27 12:54:51;;;;;;;37.00;5.38;;;42.30;55.20;;;;;;5104798;28;20493;-68
2022/06/27 12:57:55;;;;;;;44.40;6.70;;;41.90;55.80;;;;;;5103828;28;20047;-68
2022/06/27 13:01:00;;;;;;;32.67;5.93;;;41.90;55.20;;;;;;5102648;28;20047;-68
2022/06/27 13:04:05;;;;;;;32.90;5.97;;;41.60;55.20;;;;;;5106602;28;20042;-69
2022/06/27 13:07:09;;;;;;;28.17;5.85;;;40.90;55.40;;;;;;5104517;28;20043;-68
2022/06/27 13:10:13;;;;;;;37.55;6.47;;;40.80;54.80;;;;;;5104809;28;20034;-68
2022/06/27 13:13:17;;;;;;;33.55;6.00;;;40.90;55.70;;;;;;5101483;28;20046;-69
2022/06/27 13:16:22;;;;;;;39.25;6.43;;;40.90;54.90;;;;;;5107617;28;20054;-68
2022/06/27 13:19:26;;;;;;;40.33;7.00;;;41.00;55.00;;;;;;5105763;28;20054;-68
2022/06/27 13:22:30;;;;;;;30.60;4.93;;;40.30;55.60;;;;;;5106989;28;20038;-68
2022/06/27 13:25:34;;;;;;;39.33;6.15;;;40.40;56.20;;;;;;5108666;28;20027;-68
2022/06/27 13:28:38;;;;;;;30.20;6.35;;;40.60;55.80;;;;;;5111072;28;20035;-68
2022/06/27 13:31:42;;;;;;;37.13;5.75;;;40.10;55.10;;;;;;5105931;28;20047;-68
2022/06/27 13:34:46;;;;;;;37.63;5.57;;;40.40;55.30;;;;;;5110263;28;20042;-68
2022/06/27 13:37:51;;;;;;;39.65;5.95;;;40.20;55.50;;;;;;5107386;28;20038;-68
2022/06/27 13:40:54;;;;;;;37.33;5.05;;;40.60;54.10;;;;;;5110437;28;20042;-69
2022/06/27 13:43:58;;;;;;;33.25;5.80;;;39.80;53.90;;;;;;5108255;28;20050;-68
2022/06/27 13:47:04;;;;;;;37.75;6.00;;;39.80;55.40;;;;;;5111988;28;20043;-67
2022/06/27 13:50:09;;;;;;;41.03;6.38;;;40.20;53.70;;;;;;5107228;28;20039;-67
2022/06/27 13:53:13;;;;;;;36.03;6.28;;;40.50;54.10;;;;;;5093123;28;20047;-67
2022/06/27 13:56:18;;;;;;;30.17;5.15;;;40.00;54.30;;;;;;5092708;28;20050;-68
2022/06/27 13:59:22;;;;;;;37.20;6.60;;;40.50;54.80;;;;;;5108659;28;20061;-68
2022/06/27 14:02:26;;;;;;;44.22;6.72;;;39.40;54.90;;;;;;5105119;28;20035;-68
2022/06/27 14:05:31;;;;;;;45.15;7.60;;;39.10;55.80;;;;;;5110995;28;20042;-68
2022/06/27 14:08:35;;;;;;;37.40;7.05;;;38.90;55.60;;;;;;5105631;28;20043;-67
2022/06/27 14:11:39;;;;;;;39.42;7.47;;;38.60;56.20;;;;;;5109196;28;20038;-68
2022/06/27 14:14:43;;;;;;;50.47;7.28;;;38.70;56.90;;;;;;5107545;28;20050;-69
2022/06/27 14:17:48;;;;;;;34.00;7.10;;;38.90;56.20;;;;;;5107834;28;20047;-68
2022/06/27 14:20:52;;;;;;;43.35;6.47;;;38.40;56.80;;;;;;5107262;28;20051;-69
2022/06/27 14:23:56;;;;;;;40.00;8.23;;;38.70;56.60;;;;;;5110001;28;20039;-69
2022/06/27 14:27:00;;;;;;;34.05;7.20;;;38.70;56.40;;;;;;5108682;28;20050;-68
2022/06/27 14:30:06;;;;;;;34.78;6.75;;;38.00;56.90;;;;;;5112393;28;20047;-70
2022/06/27 14:33:11;;;;;;;37.05;7.07;;;37.60;58.10;;;;;;5110675;28;20054;-68
2022/06/27 14:36:15;;;;;;;37.33;6.68;;;37.30;57.40;;;;;;5103231;28;20046;-69
2022/06/27 14:39:19;;;;;;;26.52;6.28;;;37.30;58.00;;;;;;5111146;28;20046;-69
2022/06/27 14:42:23;;;;;;;37.53;5.93;;;37.00;58.40;;;;;;5104772;28;20050;-69
2022/06/27 14:45:27;;;;;;;32.47;6.05;;;36.80;58.70;;;;;;5102963;28;20046;-70
2022/06/27 14:48:31;;;;;;;33.03;5.75;;;36.90;58.60;;;;;;5108402;28;20052;-69
2022/06/27 14:51:35;;;;;;;46.55;7.78;;;36.70;58.70;;;;;;5105534;28;20418;-69
2022/06/27 14:54:39;;;;;;;34.95;6.60;;;36.80;58.90;;;;;;5090260;28;20046;-69
2022/06/27 14:57:44;;;;;;;40.80;6.55;;;36.60;59.00;;;;;;5105442;28;20046;-68
2022/06/27 15:00:48;;;;;;;36.15;6.25;;;36.60;59.40;;;;;;5104344;28;20599;-68
2022/06/27 15:03:52;;;;;;;25.50;5.90;;;36.70;59.40;;;;;;5105781;28;20043;-68
2022/06/27 16:51:28;;;;;;;31.27;5.85;;;34.80;64.60;;;;;;5125266;27;20047;-69
2022/06/27 16:54:33;;;;;;;32.60;6.05;;;34.70;64.50;;;;;;5113567;28;20049;-69
2022/06/27 16:57:37;;;;;;;37.85;6.70;;;34.70;64.90;;;;;;5111997;28;20967;-68
2022/06/27 17:00:43;;;;;;;31.15;6.15;;;34.50;65.40;;;;;;5113292;28;20500;-68
2022/06/27 17:03:47;;;;;;;28.17;5.30;;;34.50;65.30;;;;;;5101703;28;20042;-68
2022/06/27 17:06:51;;;;;;;25.35;5.55;;;34.40;65.70;;;;;;5113273;28;20062;-68
2022/06/27 17:09:55;;;;;;;27.90;6.85;;;34.30;66.20;;;;;;5113882;28;20046;-68
2022/06/27 17:13:01;;;;;;;41.95;7.22;;;34.30;66.40;;;;;;5113732;28;20042;-69
2022/06/27 17:16:05;;;;;;;36.70;6.35;;;34.20;66.30;;;;;;5113209;28;20047;-69
2022/06/27 17:19:09;;;;;;;33.00;6.25;;;34.00;66.50;;;;;;5113650;28;20050;-68
2022/06/27 17:22:13;;;;;;;32.88;6.70;;;33.90;67.20;;;;;;5113575;28;20035;-68
2022/06/27 17:25:18;;;;;;;31.77;6.85;;;33.80;67.00;;;;;;5113548;28;20059;-68
2022/06/27 17:28:22;;;;;;;28.73;6.53;;;33.70;66.90;;;;;;5112707;28;20382;-69
2022/06/27 17:31:26;;;;;;;29.83;5.75;;;33.70;67.70;;;;;;5111471;28;20038;-68
2022/06/27 17:34:30;;;;;;;36.33;6.43;;;33.60;68.00;;;;;;5112894;28;20394;-68
2022/06/27 17:37:35;;;;;;;34.03;5.63;;;33.50;67.60;;;;;;5112444;28;20047;-69
2022/06/27 17:40:39;;;;;;;35.42;5.95;;;33.50;68.30;;;;;;5113089;28;20516;-68
2022/06/27 17:43:44;;;;;;;47.72;7.22;;;33.40;67.90;;;;;;5113086;28;20401;-68
2022/06/27 17:46:47;;;;;;;40.67;5.70;;;33.30;67.30;;;;;;5112562;28;20047;-69